MQC weather

Miquelon Airport
Miquelon, Miquelon-Longlade, Saint Pierre and Miquelon

Public forecast

Using degrees Celsius for public forecast. Weather courtesy of forecast.io.

METAR (pilot weather report)

Closest report is St Pierre Airport, 21.7 nm (40.2 km) SSE. Retrieved 2019/09/19 00:00 UTC (1 hour ago):

LFVP 190000Z 03017KT 9999 BKN020 09/05 Q1020 NOSIG

TAF (pilot weather forecast)

Forecast is more than 6 hours old.

Closest forecast is St Pierre Airport, 21.7 nm (40.2 km) SSE. Retrieved 2019/09/18 18:00 UTC (7 hours ago):

TAF LFVP 181700Z 1818/1903 02020G30KT 9999 BKN015 BKN050 BECMG 1900/1902 36010KT